Time;durP1;ratioP1;P1;durP2;ratioP2;P2;SDS_P1;SDS_P2;PMS_P1;PMS_P2;Temp;Humidity;BMP_temperature;BMP_pressure;BME280_temperature;BME280_humidity;BME280_pressure;Samples;Min_cycle;Max_cycle;Signal;HPM_P1;HPM_P2
2022/03/02 00:00:16;;;;;;;9.75;5.50;;;;;;;11.52;25.64;102229.03;5029856;28;20087;-90
2022/03/02 00:02:43;;;;;;;8.45;5.55;;;;;;;11.50;25.41;102237.28;5051834;28;20052;-90
2022/03/02 00:05:13;;;;;;;10.10;5.90;;;;;;;11.51;25.46;102233.59;5060307;28;20105;-90
2022/03/02 00:07:41;;;;;;;10.80;6.38;;;;;;;11.48;25.60;102232.84;5046116;28;20040;-90
2022/03/02 00:10:10;;;;;;;8.75;6.25;;;;;;;11.47;25.40;102236.53;5056278;28;20454;-90
2022/03/02 00:12:36;;;;;;;10.77;5.70;;;;;;;11.45;25.55;102223.88;5069928;28;20056;-90
2022/03/02 00:15:04;;;;;;;9.63;5.68;;;;;;;11.42;25.33;102221.31;5046109;28;20045;-90
2022/03/02 00:17:30;;;;;;;9.50;6.18;;;;;;;11.39;25.30;102221.47;5047026;28;20048;-90
2022/03/02 00:20:00;;;;;;;9.95;6.05;;;;;;;11.39;25.28;102221.47;5042326;28;20048;-90
2022/03/02 00:22:27;;;;;;;9.40;5.90;;;;;;;11.34;25.37;102233.53;5057455;28;20049;-91
2022/03/02 00:24:56;;;;;;;9.00;5.72;;;;;;;11.31;25.57;102231.81;5022307;28;20091;-90
2022/03/02 00:27:23;;;;;;;9.20;5.85;;;;;;;11.29;25.42;102228.28;5052827;28;20416;-90
2022/03/02 00:29:51;;;;;;;10.27;5.90;;;;;;;11.28;25.49;102231.13;5057437;28;20049;-91
2022/03/02 00:32:18;;;;;;;9.82;5.90;;;;;;;11.24;25.23;102227.66;5027762;28;20123;-90
2022/03/02 00:34:48;;;;;;;8.95;5.60;;;;;;;11.24;25.49;102233.09;5031037;28;20385;-90
2022/03/02 00:37:15;;;;;;;11.13;5.57;;;;;;;11.20;25.83;102227.88;5049445;28;20053;-90
2022/03/02 00:39:44;;;;;;;10.10;6.57;;;;;;;11.20;25.35;102225.16;5039224;28;20050;-90
2022/03/02 00:42:11;;;;;;;8.90;5.63;;;;;;;11.17;25.49;102222.56;5025433;28;20053;-91
2022/03/02 00:44:49;;;;;;;9.63;6.22;;;;;;;11.18;25.38;102218.91;5024938;28;20386;-90
2022/03/02 00:47:16;;;;;;;11.07;6.80;;;;;;;11.14;25.73;102214.56;5045797;28;20464;-91
2022/03/02 00:49:44;;;;;;;8.90;5.78;;;;;;;11.12;25.43;102211.91;5034383;28;20400;-91
2022/03/02 00:52:11;;;;;;;10.05;6.40;;;;;;;11.10;25.41;102202.97;5057235;28;20117;-90
2022/03/02 00:54:37;;;;;;;8.85;5.75;;;;;;;11.06;25.60;102204.94;5039936;28;20062;-91
2022/03/02 00:57:04;;;;;;;8.00;5.50;;;;;;;11.06;25.65;102202.22;5070148;28;20049;-90
2022/03/02 00:59:35;;;;;;;7.93;5.35;;;;;;;11.07;25.40;102192.22;5034081;28;20094;-91
2022/03/02 01:02:02;;;;;;;8.88;5.78;;;;;;;11.03;25.63;102196.94;5047573;28;20115;-91
2022/03/02 01:04:32;;;;;;;9.05;5.65;;;;;;;11.04;25.69;102193.25;5035484;28;20055;-90
2022/03/02 01:06:59;;;;;;;8.32;5.82;;;;;;;11.02;25.63;102195.19;5043959;28;20488;-90
2022/03/02 01:09:28;;;;;;;9.27;5.47;;;;;;;11.05;25.52;102186.84;5040602;28;20487;-90
2022/03/02 01:11:55;;;;;;;8.70;5.65;;;;;;;11.02;25.53;102192.47;5062089;28;20053;-91
2022/03/02 01:14:22;;;;;;;8.88;5.80;;;;;;;11.03;25.70;102190.63;5035609;28;20057;-90
2022/03/02 01:16:50;;;;;;;9.63;5.60;;;;;;;11.04;25.78;102186.94;5049138;28;20049;-91
2022/03/02 01:19:19;;;;;;;9.13;5.75;;;;;;;11.05;25.84;102186.84;5055999;28;20124;-90
2022/03/02 01:21:46;;;;;;;9.82;5.90;;;;;;;11.04;25.53;102176.94;5014242;28;20053;-91
2022/03/02 01:24:13;;;;;;;9.32;6.00;;;;;;;11.05;25.91;102185.97;5038643;28;20488;-90
2022/03/02 01:26:39;;;;;;;11.40;6.43;;;;;;;11.05;25.87;102177.81;5059544;28;20049;-90
2022/03/02 01:29:09;;;;;;;11.27;6.20;;;;;;;11.07;25.58;102167.75;5016143;28;20489;-90
2022/03/02 01:31:36;;;;;;;9.57;5.60;;;;;;;11.04;25.90;102168.78;5022662;28;20080;-91
2022/03/02 01:34:02;;;;;;;9.32;6.10;;;;;;;11.04;25.68;102168.78;5063537;28;20061;-90
2022/03/02 01:36:31;;;;;;;8.32;5.75;;;;;;;11.05;25.91;102169.66;5061795;28;20126;-90
2022/03/02 01:38:58;;;;;;;9.35;5.50;;;;;;;11.04;25.90;102162.47;5028935;28;20053;-90
2022/03/02 01:41:26;;;;;;;10.40;6.05;;;;;;;11.03;25.87;102158.91;5058387;28;20056;-90
2022/03/02 01:43:54;;;;;;;9.65;6.05;;;;;;;11.03;25.90;102168.88;5052844;28;20562;-90
2022/03/02 01:46:25;;;;;;;9.90;5.65;;;;;;;11.01;25.61;102162.63;5042171;28;20636;-90
2022/03/02 01:48:53;;;;;;;11.75;5.85;;;;;;;10.99;25.87;102164.53;5049604;28;20091;-91
2022/03/02 01:51:22;;;;;;;10.68;6.43;;;;;;;10.98;26.27;102163.66;5038493;28;20908;-90
2022/03/02 01:53:49;;;;;;;8.10;5.63;;;;;;;10.97;25.52;102159.16;5032514;28;20111;-90
2022/03/02 01:56:19;;;;;;;9.55;5.43;;;;;;;10.98;25.65;102162.78;5031283;28;20053;-90
2022/03/02 01:58:49;;;;;;;8.60;5.70;;;;;;;10.92;25.83;102153.09;5046646;28;20112;-90
2022/03/02 02:01:21;;;;;;;8.80;5.80;;;;;;;10.91;25.97;102156.75;5047286;28;20081;-91
2022/03/02 02:03:55;;;;;;;9.07;5.60;;;;;;;10.92;25.93;102152.19;5064155;28;20083;-90
2022/03/02 02:06:21;;;;;;;7.78;5.55;;;;;;;10.90;26.03;102152.25;5030872;28;20049;-90
2022/03/02 02:08:48;;;;;;;9.68;6.25;;;;;;;10.92;26.14;102146.75;5053073;28;20052;-90
2022/03/02 02:11:15;;;;;;;9.50;6.00;;;;;;;10.91;25.99;102153.16;5051261;28;20115;-90
2022/03/02 02:13:42;;;;;;;10.57;5.82;;;;;;;10.91;26.02;102147.72;5041391;28;20052;-90
2022/03/02 02:16:13;;;;;;;9.50;5.55;;;;;;;10.90;26.22;102144.13;5038026;28;20048;-90
2022/03/02 02:18:46;;;;;;;9.88;5.88;;;;;;;10.88;26.28;102137.88;5046304;28;20149;-90
2022/03/02 02:21:13;;;;;;;7.63;5.47;;;;;;;10.86;26.38;102139.78;5045535;28;20051;-89
2022/03/02 02:23:40;;;;;;;9.23;6.00;;;;;;;10.85;26.10;102132.59;5052499;28;20140;-90
2022/03/02 02:26:07;;;;;;;7.88;5.35;;;;;;;10.83;26.13;102131.78;5017969;28;20060;-90
2022/03/02 02:28:34;;;;;;;10.70;5.93;;;;;;;10.81;26.06;102136.41;5015482;28;20556;-90
2022/03/02 02:31:02;;;;;;;9.27;5.43;;;;;;;10.78;26.05;102133.84;5048162;28;20048;-90
2022/03/02 02:33:29;;;;;;;8.27;5.70;;;;;;;10.76;26.29;102135.75;5030705;28;20460;-90
2022/03/02 02:35:56;;;;;;;9.13;5.93;;;;;;;10.72;26.17;102131.41;5049529;28;20041;-89
2022/03/02 02:38:24;;;;;;;10.38;5.60;;;;;;;10.68;26.36;102122.53;5068325;28;20084;-90
2022/03/02 02:40:52;;;;;;;9.65;6.38;;;;;;;10.68;26.43;102125.25;5053681;28;20113;-90
2022/03/02 02:43:22;;;;;;;8.95;5.72;;;;;;;10.67;26.16;102122.59;5079130;28;20057;-89
2022/03/02 02:45:48;;;;;;;9.90;6.25;;;;;;;10.64;26.26;102120.91;5074432;28;20504;-91
2022/03/02 02:48:16;;;;;;;9.05;6.00;;;;;;;10.62;26.18;102111.94;5036529;28;20090;-90
2022/03/02 02:50:44;;;;;;;8.48;5.85;;;;;;;10.59;26.01;102117.53;5036672;28;20060;-90
2022/03/02 02:53:13;;;;;;;8.55;5.65;;;;;;;10.58;26.29;102114.88;5037392;28;20072;-89
2022/03/02 02:55:44;;;;;;;9.02;5.32;;;;;;;10.58;26.13;102114.88;5075261;28;20037;-89
2022/03/02 02:58:11;;;;;;;8.82;5.72;;;;;;;10.53;26.25;102108.78;5049410;28;20096;-90
2022/03/02 03:00:44;;;;;;;12.50;5.40;;;;;;;10.51;26.16;102108.84;5038173;28;20156;-89
2022/03/02 03:03:11;;;;;;;8.95;5.38;;;;;;;10.45;26.37;102101.00;4997441;28;20054;-90
2022/03/02 03:05:42;;;;;;;8.55;5.38;;;;;;;10.47;26.31;102098.19;5038018;28;20079;-90
2022/03/02 03:08:09;;;;;;;8.38;5.50;;;;;;;10.44;26.55;102103.78;5024566;28;20069;-90
2022/03/02 03:10:42;;;;;;;10.52;6.22;;;;;;;10.43;26.47;102102.03;5031535;28;20381;-90
2022/03/02 03:13:09;;;;;;;8.38;5.93;;;;;;;10.35;26.55;102094.22;5037084;28;20101;-89
2022/03/02 03:15:38;;;;;;;8.48;5.30;;;;;;;10.35;26.35;102096.94;5039881;28;20067;-90
2022/03/02 03:18:06;;;;;;;8.95;5.13;;;;;;;10.33;26.43;102089.81;5040528;28;20050;-90
2022/03/02 03:20:37;;;;;;;8.32;5.50;;;;;;;10.33;26.64;102095.25;5037306;28;20055;-90
2022/03/02 03:23:05;;;;;;;9.27;5.65;;;;;;;10.27;26.82;102085.56;5006665;28;20084;-90
2022/03/02 03:25:35;;;;;;;8.15;5.30;;;;;;;10.28;26.51;102096.34;5055411;28;20049;-90
2022/03/02 03:28:06;;;;;;;8.10;5.60;;;;;;;10.26;26.41;102090.09;5035289;28;20501;-90
2022/03/02 03:30:33;;;;;;;9.65;6.32;;;;;;;10.25;26.63;102085.63;5015606;28;20080;-90
2022/03/02 03:33:02;;;;;;;7.95;5.07;;;;;;;10.24;26.83;102088.41;5030777;28;20072;-90
2022/03/02 03:35:32;;;;;;;9.27;5.93;;;;;;;10.25;26.74;102085.63;5034039;28;20057;-90
2022/03/02 03:37:59;;;;;;;8.43;5.70;;;;;;;10.22;26.57;102083.03;5024533;28;20432;-90
2022/03/02 03:40:30;;;;;;;10.95;5.75;;;;;;;10.26;26.76;102083.78;5031830;28;20067;-90
2022/03/02 03:42:59;;;;;;;8.82;5.35;;;;;;;10.25;26.53;102079.31;5038369;28;20503;-90
2022/03/02 03:45:28;;;;;;;9.73;6.30;;;;;;;10.27;26.73;102088.28;5036877;28;20118;-90
2022/03/02 03:47:56;;;;;;;11.88;5.85;;;;;;;10.25;26.73;102090.16;5033079;28;20485;-90
2022/03/02 03:50:23;;;;;;;9.25;5.68;;;;;;;10.26;26.74;102086.50;5050669;28;20107;-89
2022/03/02 03:52:50;;;;;;;9.45;5.63;;;;;;;10.26;26.86;102081.97;5050348;28;20049;-90
2022/03/02 03:55:20;;;;;;;9.18;5.82;;;;;;;10.28;26.61;102084.63;5054931;28;20504;-90
2022/03/02 03:57:47;;;;;;;9.93;5.60;;;;;;;10.27;26.99;102091.00;5037820;28;20111;-90
2022/03/02 04:00:19;;;;;;;9.55;6.05;;;;;;;10.30;26.82;102082.69;5021953;28;20099;-90
2022/03/02 04:02:46;;;;;;;10.52;5.82;;;;;;;10.28;27.09;102085.50;5053845;28;20143;-90
2022/03/02 04:05:17;;;;;;;10.18;5.60;;;;;;;10.29;26.95;102068.22;5046762;28;20483;-90
2022/03/02 04:07:45;;;;;;;7.57;5.55;;;;;;;10.28;26.92;102074.63;5025407;28;20069;-89
2022/03/02 04:10:16;;;;;;;10.32;6.07;;;;;;;10.31;26.75;102073.59;5033844;28;20044;-90
2022/03/02 04:12:44;;;;;;;8.13;5.53;;;;;;;10.28;26.95;102069.22;5060983;28;20147;-90
2022/03/02 04:15:11;;;;;;;9.10;5.70;;;;;;;10.28;26.50;102073.75;5034401;28;20758;-90
2022/03/02 04:17:38;;;;;;;9.60;6.00;;;;;;;10.26;27.02;102067.50;5027837;28;20114;-90
2022/03/02 04:20:06;;;;;;;10.20;6.28;;;;;;;10.27;26.65;102067.44;5044773;28;20052;-90
2022/03/02 04:22:33;;;;;;;8.57;5.80;;;;;;;10.27;26.93;102072.00;5040227;28;20102;-90
2022/03/02 04:25:03;;;;;;;10.85;6.00;;;;;;;10.29;26.95;102076.38;5047690;28;20093;-90
2022/03/02 04:27:30;;;;;;;9.13;5.60;;;;;;;10.27;27.10;102070.16;5033594;28;20444;-90
2022/03/02 04:29:57;;;;;;;8.68;5.95;;;;;;;10.28;26.90;102066.50;5019862;28;20084;-90
2022/03/02 04:32:23;;;;;;;8.27;5.40;;;;;;;10.28;26.93;102061.06;5027073;28;20057;-90
2022/03/02 04:34:50;;;;;;;9.15;5.95;;;;;;;10.30;27.01;102064.56;5062330;28;20048;-89
2022/03/02 04:37:17;;;;;;;9.30;5.57;;;;;;;10.32;26.92;102055.47;5042763;28;20041;-90
2022/03/02 04:39:47;;;;;;;9.52;6.28;;;;;;;10.35;27.15;102056.22;5033294;28;20156;-90
2022/03/02 04:42:14;;;;;;;10.32;6.03;;;;;;;10.34;27.26;102051.75;5060195;28;20098;-90
2022/03/02 04:44:41;;;;;;;9.10;5.60;;;;;;;10.34;27.12;102050.88;5044419;28;20053;-90
2022/03/02 04:47:10;;;;;;;10.43;5.82;;;;;;;10.35;27.01;102048.09;5033157;28;20587;-90
2022/03/02 04:49:41;;;;;;;9.75;5.68;;;;;;;10.38;27.24;102050.63;5023332;28;20136;-90
2022/03/02 04:52:08;;;;;;;9.20;5.80;;;;;;;10.35;27.22;102045.38;5037923;28;20048;-90
2022/03/02 04:57:19;;;;;;;8.95;5.60;;;;;;;10.37;27.31;102051.63;5054483;28;20459;-90
2022/03/02 04:59:49;;;;;;;9.20;5.95;;;;;;;10.41;27.37;102049.63;5047514;28;20052;-90
2022/03/02 05:02:17;;;;;;;8.85;5.72;;;;;;;10.39;27.46;102044.25;5046621;28;20087;-90
2022/03/02 05:04:44;;;;;;;8.65;5.60;;;;;;;10.40;27.46;102039.72;5049959;28;20452;-89
2022/03/02 05:07:11;;;;;;;7.88;5.30;;;;;;;10.42;27.41;102045.94;5034019;28;20084;-90
2022/03/02 05:09:38;;;;;;;8.30;5.40;;;;;;;10.41;27.39;102036.94;5057306;28;20120;-90
2022/03/02 05:12:05;;;;;;;11.63;6.50;;;;;;;10.42;27.67;102035.97;5053713;28;20082;-90
2022/03/02 05:14:32;;;;;;;10.32;6.20;;;;;;;10.43;27.53;102026.00;5043280;28;20127;-90
2022/03/02 05:16:59;;;;;;;10.30;6.07;;;;;;;10.44;27.21;102031.38;5055897;28;20049;-90
2022/03/02 05:19:28;;;;;;;10.65;6.80;;;;;;;10.44;27.26;102027.75;5028672;28;20373;-89
2022/03/02 05:22:09;;;;;;;9.63;6.50;;;;;;;10.42;27.68;102026.94;5085784;28;20392;-71
2022/03/02 05:24:36;;;;;;;8.80;5.70;;;;;;;10.41;27.52;102028.78;5066522;27;20488;-72
2022/03/02 05:27:04;;;;;;;9.40;6.00;;;;;;;10.40;27.65;102027.00;5056779;28;20127;-71
2022/03/02 05:29:30;;;;;;;8.20;5.90;;;;;;;10.38;27.66;102026.19;5045869;28;20081;-71
2022/03/02 05:31:57;;;;;;;7.55;5.30;;;;;;;10.37;27.49;102029.00;5033149;28;20133;-71
2022/03/02 05:34:23;;;;;;;10.30;6.03;;;;;;;10.36;27.66;102030.84;5035533;28;20128;-72
2022/03/02 05:36:50;;;;;;;8.50;5.53;;;;;;;10.35;27.81;102037.22;5053506;28;20553;-71
2022/03/02 05:39:16;;;;;;;11.05;6.30;;;;;;;10.36;27.60;102038.09;5054814;28;20080;-72
2022/03/02 05:41:43;;;;;;;9.98;6.03;;;;;;;10.35;27.78;102042.66;5049124;28;20489;-72
2022/03/02 05:44:11;;;;;;;8.73;5.78;;;;;;;10.34;27.54;102035.47;5064049;28;20494;-72
2022/03/02 05:46:38;;;;;;;10.68;6.15;;;;;;;10.36;27.61;102039.00;5066172;28;20456;-72
2022/03/02 05:49:08;;;;;;;8.50;5.38;;;;;;;10.35;27.90;102028.19;5044138;28;20049;-71
2022/03/02 05:51:35;;;;;;;8.57;5.35;;;;;;;10.33;28.03;102036.41;5045253;28;20466;-72
2022/03/02 05:54:08;;;;;;;8.15;5.47;;;;;;;10.34;27.96;102034.56;5043151;28;20433;-72
2022/03/02 05:56:38;;;;;;;10.45;6.22;;;;;;;10.30;27.97;102029.28;5045270;28;20158;-72
2022/03/02 05:59:10;;;;;;;9.52;5.93;;;;;;;10.35;28.04;102033.63;5064606;28;20128;-70
2022/03/02 06:01:37;;;;;;;8.73;5.88;;;;;;;10.33;27.92;102030.97;5062196;28;20084;-72
2022/03/02 06:04:08;;;;;;;9.30;5.88;;;;;;;10.33;28.11;102032.81;5036784;28;20133;-71
2022/03/02 06:06:39;;;;;;;8.52;5.72;;;;;;;10.31;28.04;102030.16;5025671;28;20050;-72
2022/03/02 06:09:07;;;;;;;10.05;6.22;;;;;;;10.32;27.83;102045.50;5024158;28;20088;-72
2022/03/02 06:11:36;;;;;;;11.52;6.70;;;;;;;10.32;28.19;102039.19;5024543;28;20052;-72
2022/03/02 06:14:05;;;;;;;10.27;6.78;;;;;;;10.32;28.18;102044.63;5041576;28;20517;-72
2022/03/02 06:16:32;;;;;;;11.32;6.45;;;;;;;10.31;28.13;102046.44;5046524;28;20092;-72
2022/03/02 06:18:59;;;;;;;9.63;6.57;;;;;;;10.30;28.23;102045.56;5042088;28;20407;-72
2022/03/02 06:21:28;;;;;;;11.10;7.05;;;;;;;10.31;28.18;102046.44;5026862;28;20383;-72
2022/03/02 06:23:54;;;;;;;9.75;6.78;;;;;;;10.30;28.22;102050.13;5031939;28;20049;-72
2022/03/02 06:26:25;;;;;;;9.20;6.57;;;;;;;10.30;28.44;102045.56;5042288;28;20113;-72
2022/03/02 06:28:52;;;;;;;10.82;6.45;;;;;;;10.28;28.51;102047.50;5024118;28;20053;-71
2022/03/02 06:31:19;;;;;;;9.75;6.30;;;;;;;10.27;28.42;102048.44;5024187;28;20045;-72
2022/03/02 06:33:47;;;;;;;10.35;6.65;;;;;;;10.27;28.66;102043.00;5025139;28;20399;-72
2022/03/02 06:36:14;;;;;;;9.80;6.25;;;;;;;10.27;28.48;102036.69;4998175;28;20358;-72
2022/03/02 06:38:42;;;;;;;10.45;6.40;;;;;;;10.26;28.52;102040.38;5025903;28;20062;-72
2022/03/02 06:41:44;;;;;;;10.68;6.43;;;;;;;10.26;28.69;102041.25;5011769;28;20104;-72
2022/03/02 06:44:30;;;;;;;8.97;6.67;;;;;;;10.23;29.29;102044.09;5032958;28;20110;-71
2022/03/02 06:47:09;;;;;;;10.65;6.75;;;;;;;10.23;28.85;102044.09;5034849;28;20703;-72
2022/03/02 06:49:54;;;;;;;11.20;6.57;;;;;;;10.23;29.13;102051.34;5029636;28;20053;-72
2022/03/02 06:52:23;;;;;;;9.82;6.63;;;;;;;10.20;28.63;102054.22;5030690;28;20080;-71
2022/03/02 06:54:50;;;;;;;11.00;6.57;;;;;;;10.20;28.80;102044.25;5018994;28;20252;-71
2022/03/02 06:57:19;;;;;;;9.70;6.72;;;;;;;10.24;29.08;102042.25;5022669;28;20462;-70
2022/03/02 06:59:53;;;;;;;10.88;6.90;;;;;;;10.27;29.59;102043.00;5025687;28;20041;-69
2022/03/02 07:02:31;;;;;;;11.82;7.65;;;;;;;10.33;29.43;102055.41;5024540;28;20045;-69
2022/03/02 07:05:01;;;;;;;10.45;6.80;;;;;;;10.37;29.43;102056.16;5028225;28;20081;-71
2022/03/02 07:07:30;;;;;;;9.35;6.35;;;;;;;10.44;29.85;102052.19;5027586;28;20609;-73
2022/03/02 07:09:59;;;;;;;10.07;6.90;;;;;;;10.53;30.02;102057.19;5020790;28;20455;-71
2022/03/02 07:12:27;;;;;;;11.65;7.18;;;;;;;10.65;30.17;102056.59;5010450;28;20133;-69
2022/03/02 07:14:54;;;;;;;11.48;6.47;;;;;;;10.80;30.06;102058.56;5022530;28;20494;-70
2022/03/02 07:17:22;;;;;;;10.57;6.80;;;;;;;10.94;30.32;102058.78;5022209;28;20073;-70
2022/03/02 07:19:49;;;;;;;14.10;7.35;;;;;;;11.11;30.23;102060.69;5017121;28;20462;-69
2022/03/02 07:22:19;;;;;;;10.20;6.65;;;;;;;11.28;30.06;102057.97;5016954;28;20133;-69
2022/03/02 07:24:52;;;;;;;9.00;6.38;;;;;;;11.46;29.76;102058.88;5018073;28;20128;-68
2022/03/02 07:27:20;;;;;;;11.45;6.90;;;;;;;11.57;29.72;102067.38;5031026;28;20128;-69
2022/03/02 07:29:52;;;;;;;11.57;7.32;;;;;;;11.72;29.35;102061.13;5050107;28;20076;-69
2022/03/02 07:32:32;;;;;;;10.02;6.55;;;;;;;11.81;28.90;102059.78;5036402;28;20093;-68
2022/03/02 07:35:03;;;;;;;10.55;7.15;;;;;;;11.87;29.06;102058.56;5037523;28;20366;-69
2022/03/02 07:37:30;;;;;;;9.68;6.55;;;;;;;11.92;29.06;102056.50;5034500;28;20753;-69
2022/03/02 07:39:57;;;;;;;11.38;6.93;;;;;;;11.94;28.40;102060.88;5015705;28;20108;-68
2022/03/02 07:42:24;;;;;;;11.00;7.05;;;;;;;11.94;28.32;102050.00;5033642;28;20163;-69
2022/03/02 07:44:54;;;;;;;10.77;6.50;;;;;;;11.95;28.27;102051.75;5023786;28;20139;-68
2022/03/02 07:47:20;;;;;;;9.90;6.65;;;;;;;11.92;28.46;102046.50;5039478;28;20115;-69
2022/03/02 07:49:47;;;;;;;11.10;6.43;;;;;;;11.89;27.94;102043.94;5040372;28;20282;-69
2022/03/02 07:52:15;;;;;;;10.48;6.88;;;;;;;11.87;27.98;102044.97;5026024;28;20557;-69
2022/03/02 07:54:42;;;;;;;10.15;6.90;;;;;;;11.81;27.84;102055.22;5016343;28;20446;-70
2022/03/02 07:57:14;;;;;;;11.40;6.63;;;;;;;11.79;28.05;102050.81;5021177;28;20160;-70
2022/03/02 07:59:44;;;;;;;10.33;6.00;;;;;;;11.72;27.92;102046.63;5042108;28;20058;-71
2022/03/02 08:02:12;;;;;;;10.40;6.38;;;;;;;11.69;27.98;102055.88;5026017;28;20110;-70
2022/03/02 08:04:41;;;;;;;9.70;6.60;;;;;;;11.65;28.16;102042.47;5020012;28;20101;-70
2022/03/02 08:07:10;;;;;;;10.80;7.10;;;;;;;11.61;27.97;102035.47;5021589;28;20486;-70
2022/03/02 08:09:38;;;;;;;10.75;7.05;;;;;;;11.58;28.06;102041.06;5029004;28;20486;-69
2022/03/02 08:12:07;;;;;;;11.50;6.95;;;;;;;11.56;27.88;102040.25;5018717;28;20077;-70
2022/03/02 08:14:34;;;;;;;10.20;6.40;;;;;;;11.57;28.38;102042.88;5020592;28;20055;-69
2022/03/02 08:17:02;;;;;;;9.77;6.55;;;;;;;11.59;28.28;102038.25;5015836;28;20460;-69
2022/03/02 08:19:30;;;;;;;10.25;7.00;;;;;;;11.61;28.31;102030.88;5019871;28;20079;-69
2022/03/02 08:22:04;;;;;;;10.18;6.82;;;;;;;11.67;28.07;102037.84;5024504;28;20045;-69
2022/03/02 08:24:32;;;;;;;9.65;6.28;;;;;;;11.71;28.42;102031.28;5022191;28;20050;-71
2022/03/02 08:27:02;;;;;;;11.52;7.10;;;;;;;11.77;28.04;102041.88;5013457;28;20132;-69
2022/03/02 08:29:31;;;;;;;10.43;6.90;;;;;;;11.82;28.22;102032.50;5034687;28;20052;-69
2022/03/02 08:32:00;;;;;;;8.77;6.15;;;;;;;11.88;28.30;102028.56;5049359;28;20505;-70
2022/03/02 08:34:29;;;;;;;10.45;6.53;;;;;;;11.95;28.42;102029.13;5018607;28;20076;-70
2022/03/02 08:36:56;;;;;;;9.95;6.63;;;;;;;12.02;28.31;102028.72;5017306;28;20045;-70
2022/03/02 08:39:24;;;;;;;9.50;6.38;;;;;;;12.10;28.33;102029.19;5019553;28;20137;-70
2022/03/02 08:41:52;;;;;;;8.55;5.93;;;;;;;12.18;28.18;102021.47;5034383;28;20128;-69
2022/03/02 08:44:20;;;;;;;9.30;6.57;;;;;;;12.25;28.03;102019.28;5026797;28;20135;-69
2022/03/02 08:46:47;;;;;;;8.27;5.85;;;;;;;12.33;28.25;102018.88;5020418;28;20409;-69
2022/03/02 08:49:17;;;;;;;9.85;6.40;;;;;;;12.40;27.87;102012.09;5020774;28;20562;-69
2022/03/02 08:51:44;;;;;;;10.30;7.03;;;;;;;12.47;27.52;102014.41;5031047;28;20459;-69
2022/03/02 08:54:15;;;;;;;9.25;5.88;;;;;;;12.55;27.69;102014.84;5023705;28;20092;-69
2022/03/02 08:56:41;;;;;;;9.98;6.40;;;;;;;12.61;27.48;102010.88;5027003;28;20136;-69
2022/03/02 08:59:12;;;;;;;8.73;6.05;;;;;;;12.70;27.28;102002.19;5016207;28;20057;-69
2022/03/02 09:01:43;;;;;;;8.70;5.55;;;;;;;12.75;27.43;102002.81;5027744;28;20041;-70
2022/03/02 09:04:15;;;;;;;7.47;5.47;;;;;;;12.82;27.14;101996.03;5022772;28;20770;-70
2022/03/02 09:06:45;;;;;;;9.30;6.05;;;;;;;12.87;27.18;101993.91;5019296;28;20049;-70
2022/03/02 09:09:11;;;;;;;9.40;5.65;;;;;;;12.94;27.35;101997.16;5024130;28;20080;-70
2022/03/02 09:11:39;;;;;;;9.18;5.78;;;;;;;13.02;27.31;102002.16;5020097;28;20132;-70
2022/03/02 09:14:06;;;;;;;7.45;4.82;;;;;;;13.10;27.30;101994.41;5027196;28;20049;-69
2022/03/02 09:16:33;;;;;;;7.65;5.15;;;;;;;13.19;27.20;101999.34;5016625;28;20050;-69
2022/03/02 09:19:00;;;;;;;8.30;6.00;;;;;;;13.27;27.17;102005.22;5009565;28;20082;-69
2022/03/02 09:21:29;;;;;;;7.47;5.53;;;;;;;13.36;26.81;101999.22;5026008;28;20069;-69
2022/03/02 09:23:56;;;;;;;9.48;6.38;;;;;;;13.43;26.54;102000.59;5022520;28;20133;-69
2022/03/02 09:26:23;;;;;;;7.13;5.15;;;;;;;13.49;26.16;101999.38;5006064;28;20054;-69
2022/03/02 09:28:51;;;;;;;7.22;5.38;;;;;;;13.55;26.25;101988.94;5006876;28;20497;-69
2022/03/02 09:31:20;;;;;;;8.10;5.68;;;;;;;13.62;26.16;101997.63;5028107;28;20120;-69
2022/03/02 09:33:55;;;;;;;8.48;5.68;;;;;;;13.68;25.61;101994.53;5027638;28;20132;-69
2022/03/02 09:36:24;;;;;;;7.90;5.93;;;;;;;13.71;26.12;101991.63;5049044;28;20053;-69
2022/03/02 09:38:53;;;;;;;8.20;5.72;;;;;;;13.77;25.92;101988.50;5053589;28;20156;-69
2022/03/02 09:41:49;;;;;;;8.18;5.50;;;;;;;13.83;25.28;101984.53;5063832;28;20555;-69
2022/03/02 09:44:20;;;;;;;9.13;6.03;;;;;;;13.86;24.86;101981.59;5064796;28;20044;-69
2022/03/02 09:46:55;;;;;;;7.20;4.97;;;;;;;13.91;25.24;101976.72;5062700;28;20872;-69
2022/03/02 09:49:23;;;;;;;8.40;5.95;;;;;;;13.95;25.77;101991.94;5050388;28;20059;-69
2022/03/02 09:51:58;;;;;;;8.93;5.65;;;;;;;14.02;25.51;101975.06;5066717;28;20079;-69
2022/03/02 09:54:25;;;;;;;7.63;5.22;;;;;;;14.09;25.73;101975.53;5058686;23;20049;-72
2022/03/02 09:56:53;;;;;;;8.15;5.22;;;;;;;14.18;25.77;101969.50;4988579;28;20133;-72
2022/03/02 09:59:25;;;;;;;7.15;5.72;;;;;;;14.31;25.15;101978.69;5006700;28;20708;-72
2022/03/02 10:01:53;;;;;;;8.23;5.70;;;;;;;14.36;25.52;101983.81;4997268;28;20048;-72
2022/03/02 10:04:22;;;;;;;8.30;5.68;;;;;;;14.45;25.15;101975.94;5007693;28;20129;-72
2022/03/02 10:06:55;;;;;;;8.93;6.28;;;;;;;14.55;25.04;101986.28;5027545;28;20456;-72
2022/03/02 10:09:22;;;;;;;7.40;5.57;;;;;;;14.59;24.99;101976.88;5019511;28;20511;-71
2022/03/02 10:11:49;;;;;;;8.82;5.53;;;;;;;14.69;25.48;101972.56;5031116;28;20084;-72
2022/03/02 10:14:19;;;;;;;6.35;4.95;;;;;;;14.78;25.06;101975.59;5030116;28;20075;-72
2022/03/02 10:16:55;;;;;;;8.68;5.50;;;;;;;14.86;24.97;101975.06;5013973;28;20052;-72
2022/03/02 10:19:44;;;;;;;8.70;5.30;;;;;;;14.98;24.52;101981.59;4988617;28;20490;-72
2022/03/02 10:22:48;;;;;;;5.80;4.88;;;;;;;15.05;24.50;101981.06;4997089;28;20499;-71
2022/03/02 10:25:17;;;;;;;6.93;5.55;;;;;;;15.12;24.96;101971.44;5011528;28;20469;-72
2022/03/02 10:28:00;;;;;;;7.60;5.60;;;;;;;15.19;24.58;101967.31;5009304;28;20077;-72
2022/03/02 10:30:32;;;;;;;7.93;5.53;;;;;;;15.32;23.95;101966.47;5013199;28;20186;-72
2022/03/02 10:33:16;;;;;;;7.75;5.53;;;;;;;15.38;23.15;101964.19;5042204;28;20089;-72
2022/03/02 10:36:03;;;;;;;7.38;5.50;;;;;;;15.45;23.79;101967.38;5034089;28;20076;-71
2022/03/02 10:38:38;;;;;;;8.57;5.40;;;;;;;15.48;23.07;101962.53;5048555;28;20079;-72
2022/03/02 10:41:08;;;;;;;7.03;5.10;;;;;;;15.52;23.56;101960.47;5008612;28;20092;-72
2022/03/02 10:43:47;;;;;;;7.40;5.50;;;;;;;15.57;23.30;101961.94;5039186;28;20083;-72
2022/03/02 10:46:22;;;;;;;6.93;5.07;;;;;;;15.60;22.31;101955.38;5048697;28;20059;-72
2022/03/02 10:49:17;;;;;;;6.15;4.85;;;;;;;15.61;23.15;101957.13;5037740;28;20464;-72
2022/03/02 10:51:45;;;;;;;6.43;4.28;;;;;;;15.65;23.94;101946.88;5035639;28;20053;-72
2022/03/02 10:54:17;;;;;;;6.70;4.97;;;;;;;15.72;22.99;101956.38;5031465;28;20139;-72
2022/03/02 10:56:44;;;;;;;6.70;4.90;;;;;;;15.74;23.38;101946.19;5049661;28;20106;-72
2022/03/02 10:59:16;;;;;;;6.70;4.88;;;;;;;15.79;23.25;101950.38;5044699;28;20081;-72
2022/03/02 11:01:49;;;;;;;7.53;5.07;;;;;;;15.83;23.36;101953.75;5033761;28;20051;-72
2022/03/02 11:04:19;;;;;;;6.75;4.70;;;;;;;15.91;22.79;101946.72;5049588;28;20498;-72
2022/03/02 11:06:46;;;;;;;6.60;5.07;;;;;;;15.93;22.67;101943.88;5044465;28;20075;-72
2022/03/02 11:09:34;;;;;;;7.40;4.60;;;;;;;15.98;22.71;101947.16;5028679;28;20403;-72
2022/03/02 11:12:01;;;;;;;7.20;4.60;;;;;;;16.00;22.49;101928.75;5012011;28;20092;-72
2022/03/02 11:14:28;;;;;;;6.63;4.43;;;;;;;16.01;22.59;101929.63;5023304;28;20049;-72
2022/03/02 11:17:15;;;;;;;6.22;4.75;;;;;;;16.04;21.84;101922.09;5032695;28;20080;-72
2022/03/02 11:19:47;;;;;;;5.50;4.50;;;;;;;16.02;22.44;101925.91;5041564;28;20144;-72
2022/03/02 11:22:20;;;;;;;6.80;4.47;;;;;;;16.06;22.43;101920.09;5041253;28;20129;-72
2022/03/02 11:24:47;;;;;;;5.97;4.65;;;;;;;16.07;22.25;101927.31;5040599;28;20073;-72
2022/03/02 11:27:28;;;;;;;5.75;4.28;;;;;;;16.14;21.84;101914.91;5029059;28;20331;-72
2022/03/02 11:30:24;;;;;;;6.68;4.60;;;;;;;16.14;21.51;101914.06;5032204;28;20489;-71
2022/03/02 11:32:51;;;;;;;6.65;4.72;;;;;;;16.19;22.20;101915.47;5028120;28;20098;-72
2022/03/02 11:35:19;;;;;;;9.23;4.70;;;;;;;16.26;21.73;101910.41;5033459;28;20082;-72